Time;durP1;ratioP1;P1;durP2;ratioP2;P2;SDS_P1;SDS_P2;PMS_P1;PMS_P2;Temp;Humidity;BMP_temperature;BMP_pressure;BME280_temperature;BME280_humidity;BME280_pressure;Samples;Min_cycle;Max_cycle;Signal;HPM_P1;HPM_P2
2024/03/02 05:31:20;;;;;;;0.10;0.10;;;5.70;89.60;;;;;;5363085;24;20049;-75
2024/03/02 05:33:45;;;;;;;0.10;0.10;;;5.70;89.60;;;;;;4862905;29;20033;-75
2024/03/02 05:36:11;;;;;;;0.10;0.10;;;5.70;89.60;;;;;;4866884;29;20041;-76
2024/03/02 05:38:36;;;;;;;0.10;0.10;;;5.70;89.40;;;;;;4850319;29;20029;-75
2024/03/02 05:41:02;;;;;;;0.10;0.10;;;5.70;89.60;;;;;;4867214;29;20021;-73
2024/03/02 05:43:28;;;;;;;0.10;0.10;;;5.70;89.70;;;;;;4866498;29;20033;-75
2024/03/02 05:45:54;;;;;;;0.10;0.10;;;5.70;89.80;;;;;;4867080;29;20072;-76
2024/03/02 05:48:20;;;;;;;0.10;0.10;;;5.70;89.70;;;;;;4866835;29;20033;-76
2024/03/02 05:50:45;;;;;;;0.10;0.10;;;5.70;89.90;;;;;;4849595;29;20177;-74
2024/03/02 05:53:11;;;;;;;0.10;0.10;;;5.60;90.00;;;;;;4866827;29;20474;-76
2024/03/02 05:55:37;;;;;;;0.10;0.10;;;5.60;90.10;;;;;;4866454;29;20122;-76
2024/03/02 05:58:25;;;;;;;0.10;0.10;;;5.60;90.20;;;;;;4866866;29;20044;-76
2024/03/02 06:00:51;;;;;;;0.15;0.15;;;5.50;90.30;;;;;;4865423;29;20494;-74
2024/03/02 06:03:16;;;;;;;0.10;0.10;;;5.50;90.40;;;;;;4866781;29;20183;-74
2024/03/02 06:05:42;;;;;;;0.10;0.10;;;5.50;90.40;;;;;;4880604;29;20033;-74
2024/03/02 06:08:08;;;;;;;0.10;0.10;;;5.50;90.40;;;;;;4866688;29;20072;-74
2024/03/02 06:10:33;;;;;;;0.20;0.20;;;5.50;90.50;;;;;;4850120;29;20549;-74
2024/03/02 06:12:59;;;;;;;0.10;0.10;;;5.50;90.30;;;;;;4866249;29;20064;-74
2024/03/02 06:15:24;;;;;;;0.10;0.10;;;5.40;90.40;;;;;;4866403;29;20029;-74
2024/03/02 06:17:50;;;;;;;0.10;0.10;;;5.40;90.40;;;;;;4866354;29;20044;-74
2024/03/02 06:20:16;;;;;;;0.10;0.10;;;5.50;90.40;;;;;;4846478;29;20019;-74
2024/03/02 06:22:41;;;;;;;0.10;0.10;;;5.50;90.40;;;;;;4862313;29;20117;-74
2024/03/02 06:25:07;;;;;;;0.10;0.10;;;5.60;90.30;;;;;;4865990;29;20028;-74
2024/03/02 06:27:33;;;;;;;0.10;0.10;;;5.60;90.40;;;;;;4848250;29;20052;-74
2024/03/02 06:29:58;;;;;;;0.10;0.10;;;5.70;90.20;;;;;;4866531;29;20093;-75
2024/03/02 06:32:25;;;;;;;0.10;0.10;;;5.70;90.10;;;;;;4865637;29;20537;-74
2024/03/02 06:34:50;;;;;;;0.10;0.10;;;5.60;90.10;;;;;;4866423;29;20064;-74
2024/03/02 06:37:16;;;;;;;0.10;0.10;;;5.60;90.10;;;;;;4865890;29;20038;-74
2024/03/02 06:39:42;;;;;;;0.10;0.10;;;5.50;90.00;;;;;;4865997;29;20018;-74
2024/03/02 06:42:07;;;;;;;0.10;0.10;;;5.50;89.90;;;;;;4865916;29;20034;-74
2024/03/02 06:44:34;;;;;;;0.10;0.10;;;5.50;90.00;;;;;;4866075;29;20082;-74
2024/03/02 06:46:59;;;;;;;0.10;0.10;;;5.50;90.20;;;;;;4865859;29;20482;-74
2024/03/02 06:49:25;;;;;;;0.13;0.13;;;5.50;90.10;;;;;;4866082;29;20029;-74
2024/03/02 06:51:51;;;;;;;0.10;0.10;;;5.60;90.10;;;;;;4865877;29;20036;-74
2024/03/02 06:54:17;;;;;;;0.20;0.20;;;5.50;90.10;;;;;;4848805;29;20037;-74
2024/03/02 06:56:42;;;;;;;0.15;0.15;;;5.60;90.10;;;;;;4865901;29;20044;-74
2024/03/02 06:59:08;;;;;;;0.10;0.10;;;5.60;90.00;;;;;;4865712;29;20100;-74
2024/03/02 07:01:34;;;;;;;0.10;0.10;;;5.60;90.00;;;;;;4866157;29;20038;-74
2024/03/02 07:04:00;;;;;;;0.10;0.10;;;5.60;89.90;;;;;;4848258;29;20074;-74
2024/03/02 07:06:25;;;;;;;0.10;0.10;;;5.70;89.90;;;;;;4865497;29;20037;-74
2024/03/02 07:08:51;;;;;;;0.10;0.10;;;5.70;89.80;;;;;;4865240;29;20030;-74
2024/03/02 07:11:16;;;;;;;0.10;0.10;;;5.70;89.70;;;;;;4865915;29;20112;-74
2024/03/02 07:13:42;;;;;;;0.10;0.10;;;5.70;89.70;;;;;;4848912;29;20034;-74
2024/03/02 07:18:41;;;;;;;0.10;0.10;;;5.70;89.60;;;;;;4865760;29;20037;-74
2024/03/02 07:21:10;;;;;;;0.15;0.15;;;5.70;89.60;;;;;;4848313;29;20140;-74
2024/03/02 07:23:36;;;;;;;0.20;0.20;;;5.70;89.50;;;;;;4848657;29;20116;-74
2024/03/02 07:26:01;;;;;;;0.10;0.10;;;5.70;89.50;;;;;;4864714;29;20061;-74
2024/03/02 07:28:28;;;;;;;0.10;0.10;;;5.80;89.50;;;;;;4865313;29;20413;-74
2024/03/02 07:31:04;;;;;;;0.10;0.10;;;5.80;89.50;;;;;;4848861;29;20422;-74
2024/03/02 07:33:30;;;;;;;0.10;0.10;;;5.80;89.50;;;;;;4864899;29;20521;-74
2024/03/02 07:35:57;;;;;;;0.10;0.10;;;5.70;89.50;;;;;;4864741;29;20045;-74
2024/03/02 07:38:23;;;;;;;0.20;0.20;;;5.70;89.60;;;;;;4848630;29;20049;-74
2024/03/02 07:40:51;;;;;;;0.10;0.10;;;5.70;89.60;;;;;;4865117;29;20825;-74
2024/03/02 07:43:19;;;;;;;0.10;0.10;;;5.70;89.60;;;;;;4848702;29;20389;-74
2024/03/02 07:45:44;;;;;;;0.10;0.10;;;5.70;89.60;;;;;;4864480;29;20037;-74
2024/03/02 07:48:10;;;;;;;0.10;0.10;;;5.80;89.50;;;;;;4864967;29;20113;-74
2024/03/02 07:50:37;;;;;;;0.13;0.13;;;5.80;89.40;;;;;;4865142;29;20623;-74
2024/03/02 07:53:03;;;;;;;0.20;0.20;;;5.80;89.20;;;;;;4864041;29;20033;-74
2024/03/02 07:55:29;;;;;;;0.10;0.10;;;5.80;89.20;;;;;;4864759;29;20077;-74
2024/03/02 07:57:56;;;;;;;0.20;0.20;;;5.90;89.20;;;;;;4865073;29;20490;-74
2024/03/02 08:00:22;;;;;;;0.32;0.32;;;5.90;89.10;;;;;;4864696;29;20042;-74
2024/03/02 08:02:48;;;;;;;0.20;0.20;;;6.30;88.70;;;;;;4864094;29;20029;-73
2024/03/02 08:05:14;;;;;;;0.30;0.30;;;6.60;87.80;;;;;;4864290;29;20478;-74
2024/03/02 08:07:40;;;;;;;0.20;0.20;;;7.00;87.60;;;;;;4864699;29;20101;-74
2024/03/02 08:10:07;;;;;;;0.30;0.30;;;7.20;86.80;;;;;;4864845;29;20117;-74
2024/03/02 08:12:32;;;;;;;0.20;0.20;;;7.70;85.50;;;;;;4863720;29;20090;-74
2024/03/02 08:14:58;;;;;;;0.10;0.10;;;7.50;85.80;;;;;;4864222;29;20033;-74
2024/03/02 08:17:23;;;;;;;0.10;0.10;;;7.20;85.90;;;;;;4864642;29;20097;-74
2024/03/02 08:19:49;;;;;;;0.10;0.10;;;7.00;86.50;;;;;;4864399;29;20032;-74
2024/03/02 08:22:15;;;;;;;0.10;0.10;;;6.80;87.00;;;;;;4847740;29;20501;-74
2024/03/02 08:24:41;;;;;;;0.10;0.10;;;6.70;87.60;;;;;;4864061;29;20466;-74
2024/03/02 08:27:06;;;;;;;0.10;0.10;;;6.60;87.70;;;;;;4848018;29;20056;-74
2024/03/02 08:29:32;;;;;;;0.13;0.13;;;6.50;87.90;;;;;;4863311;29;20041;-74
2024/03/02 08:31:58;;;;;;;0.20;0.20;;;6.50;88.10;;;;;;4864321;29;20082;-74
2024/03/02 08:34:23;;;;;;;0.13;0.13;;;6.60;88.20;;;;;;4863797;29;20037;-74
2024/03/02 08:36:49;;;;;;;0.20;0.20;;;6.60;88.20;;;;;;4863793;29;20108;-74
2024/03/02 08:39:15;;;;;;;0.20;0.20;;;6.70;88.00;;;;;;4864611;29;20037;-74
2024/03/02 08:41:47;;;;;;;0.20;0.20;;;6.70;88.00;;;;;;4863458;29;20541;-74
2024/03/02 08:44:14;;;;;;;0.20;0.20;;;6.80;87.90;;;;;;4864353;29;20059;-73
2024/03/02 08:46:40;;;;;;;0.20;0.20;;;6.80;87.50;;;;;;4863734;29;20076;-74
2024/03/02 08:49:06;;;;;;;0.20;0.20;;;6.80;87.50;;;;;;4863238;29;20068;-74
2024/03/02 08:51:32;;;;;;;0.20;0.20;;;6.90;87.30;;;;;;4864088;29;20025;-73
2024/03/02 08:53:59;;;;;;;0.20;0.20;;;7.00;87.10;;;;;;4863923;29;20486;-73
2024/03/02 08:56:25;;;;;;;0.10;0.10;;;7.20;86.80;;;;;;4844209;29;20094;-74
2024/03/02 08:58:51;;;;;;;0.20;0.20;;;7.20;86.40;;;;;;4847145;29;20125;-74
2024/03/02 09:01:18;;;;;;;0.20;0.20;;;7.20;86.30;;;;;;4863770;29;20030;-74
2024/03/02 09:03:46;;;;;;;0.30;0.30;;;7.50;86.00;;;;;;4864002;29;20034;-74
2024/03/02 09:06:13;;;;;;;0.30;0.30;;;7.80;85.70;;;;;;4863637;29;20037;-74
2024/03/02 09:08:39;;;;;;;0.20;0.20;;;8.00;85.10;;;;;;4865822;29;20569;-74
2024/03/02 09:11:06;;;;;;;0.20;0.20;;;8.00;84.70;;;;;;4867655;29;20398;-74
2024/03/02 09:13:33;;;;;;;0.10;0.10;;;7.90;84.60;;;;;;4867071;29;20045;-74
2024/03/02 09:15:58;;;;;;;0.20;0.20;;;7.90;84.60;;;;;;4867808;29;20025;-74
2024/03/02 09:18:24;;;;;;;0.10;0.10;;;7.80;84.70;;;;;;4867891;29;20040;-74
2024/03/02 09:20:50;;;;;;;0.20;0.20;;;7.60;85.20;;;;;;4867239;29;20081;-73
2024/03/02 09:23:15;;;;;;;0.20;0.20;;;7.50;85.20;;;;;;4867330;29;20037;-74
2024/03/02 09:25:41;;;;;;;0.20;0.20;;;7.50;85.50;;;;;;4867773;29;20029;-74
2024/03/02 09:28:07;;;;;;;0.57;0.57;;;7.40;85.50;;;;;;4865154;29;20064;-74
2024/03/02 09:30:33;;;;;;;0.80;0.80;;;7.50;85.70;;;;;;4846912;29;20157;-74
2024/03/02 09:32:58;;;;;;;2.20;2.10;;;8.40;84.40;;;;;;4849177;29;20042;-74
2024/03/02 09:35:24;;;;;;;3.70;3.50;;;9.20;82.80;;;;;;4848679;29;20086;-74
2024/03/02 09:37:50;;;;;;;3.38;3.17;;;10.30;80.80;;;;;;4849174;29;20037;-74
2024/03/02 09:40:16;;;;;;;2.58;2.38;;;11.50;77.90;;;;;;4846906;29;20022;-74
2024/03/02 09:42:43;;;;;;;1.65;1.55;;;12.30;75.60;;;;;;4848667;29;20487;-74
2024/03/02 09:45:09;;;;;;;3.08;2.88;;;12.40;72.50;;;;;;4846878;29;20069;-74
2024/03/02 09:47:35;;;;;;;1.80;1.70;;;13.00;71.30;;;;;;4848607;29;20471;-74
2024/03/02 09:50:01;;;;;;;0.80;0.80;;;13.50;69.70;;;;;;4848602;29;20041;-74
2024/03/02 09:52:26;;;;;;;0.40;0.40;;;13.00;69.20;;;;;;4848231;29;20026;-74
2024/03/02 09:54:52;;;;;;;0.50;0.50;;;12.30;70.90;;;;;;4848789;29;20033;-74
2024/03/02 09:57:18;;;;;;;0.30;0.30;;;11.80;72.40;;;;;;4848513;29;20073;-74
2024/03/02 09:59:45;;;;;;;1.10;1.10;;;11.20;73.40;;;;;;4848064;29;20050;-74
2024/03/02 10:02:10;;;;;;;1.10;1.10;;;11.10;74.10;;;;;;4848570;29;20036;-74
2024/03/02 10:04:36;;;;;;;2.20;2.10;;;11.30;74.10;;;;;;4848369;29;20482;-74
2024/03/02 10:07:12;;;;;;;1.63;1.52;;;11.30;72.50;;;;;;4847817;29;20034;-74
2024/03/02 10:09:38;;;;;;;0.40;0.40;;;11.70;73.60;;;;;;4848183;29;20057;-74
2024/03/02 10:12:05;;;;;;;1.35;1.25;;;11.50;73.40;;;;;;4848109;29;20042;-74
2024/03/02 10:14:31;;;;;;;2.30;2.20;;;11.50;74.00;;;;;;4848229;29;20026;-74
2024/03/02 10:17:05;;;;;;;2.80;2.60;;;11.60;74.10;;;;;;4847793;29;20477;-74
2024/03/02 10:19:34;;;;;;;0.40;0.40;;;12.10;72.90;;;;;;4847394;29;20434;-73
2024/03/02 10:22:08;;;;;;;0.20;0.20;;;12.30;72.60;;;;;;4846720;29;20372;-74
2024/03/02 10:24:44;;;;;;;0.10;0.10;;;12.20;73.10;;;;;;4845942;29;20033;-74
2024/03/02 10:27:16;;;;;;;0.20;0.20;;;11.70;73.40;;;;;;4847180;29;20494;-74
2024/03/02 10:29:41;;;;;;;0.10;0.10;;;11.20;74.30;;;;;;4847112;29;20034;-74
2024/03/02 10:32:11;;;;;;;0.10;0.10;;;10.80;75.10;;;;;;4862302;29;20063;-74
2024/03/02 10:34:38;;;;;;;0.10;0.10;;;10.60;76.20;;;;;;4866378;29;20038;-74
2024/03/02 10:37:05;;;;;;;0.10;0.10;;;10.40;76.60;;;;;;4865660;29;20026;-74
2024/03/02 10:39:31;;;;;;;0.10;0.10;;;10.40;77.00;;;;;;4847909;29;20030;-74
2024/03/02 10:41:58;;;;;;;0.20;0.20;;;10.30;77.00;;;;;;4848387;29;20026;-74
2024/03/02 10:44:25;;;;;;;0.20;0.20;;;10.10;77.00;;;;;;4848943;29;20409;-74
2024/03/02 10:46:52;;;;;;;0.20;0.20;;;10.20;77.50;;;;;;4865924;29;20077;-74
2024/03/02 10:49:20;;;;;;;0.20;0.20;;;10.30;77.40;;;;;;4866232;29;20044;-74
2024/03/02 10:51:46;;;;;;;0.20;0.20;;;10.40;77.40;;;;;;4865774;29;20033;-74
2024/03/02 10:54:12;;;;;;;0.20;0.20;;;10.50;77.40;;;;;;4865659;29;20093;-74
2024/03/02 10:56:44;;;;;;;0.10;0.10;;;10.50;77.40;;;;;;4849405;29;20623;-74
2024/03/02 10:59:32;;;;;;;0.10;0.10;;;10.40;77.30;;;;;;4865862;29;20085;-74
2024/03/02 11:01:59;;;;;;;0.10;0.10;;;10.40;77.50;;;;;;4866015;29;20025;-74
2024/03/02 11:04:29;;;;;;;0.10;0.10;;;10.30;77.20;;;;;;4848883;29;20116;-74
2024/03/02 11:07:00;;;;;;;0.10;0.10;;;10.50;76.80;;;;;;4865243;29;20044;-74
2024/03/02 11:09:28;;;;;;;0.20;0.20;;;10.50;77.00;;;;;;4849098;29;20379;-74
2024/03/02 11:12:12;;;;;;;0.20;0.20;;;10.60;76.60;;;;;;4866067;29;20033;-74
2024/03/02 11:14:43;;;;;;;0.10;0.10;;;10.60;76.10;;;;;;4864775;29;20061;-74
2024/03/02 11:17:10;;;;;;;0.20;0.20;;;10.70;76.20;;;;;;4848137;29;20405;-74
2024/03/02 11:19:40;;;;;;;0.20;0.20;;;10.70;76.40;;;;;;4865658;29;20081;-75
2024/03/02 11:22:08;;;;;;;0.20;0.20;;;10.90;76.70;;;;;;4848441;29;20040;-74
2024/03/02 11:24:33;;;;;;;0.20;0.20;;;11.10;76.70;;;;;;4865541;29;20046;-74
2024/03/02 11:27:12;;;;;;;0.20;0.20;;;11.20;75.80;;;;;;4865398;29;20502;-74
2024/03/02 11:29:40;;;;;;;0.20;0.20;;;11.30;76.10;;;;;;4848151;29;20033;-75
2024/03/02 11:32:17;;;;;;;0.20;0.20;;;11.60;75.90;;;;;;4847344;29;20061;-74
2024/03/02 11:34:49;;;;;;;0.15;0.15;;;11.60;75.40;;;;;;4865331;29;20057;-74
2024/03/02 11:37:20;;;;;;;0.20;0.20;;;11.60;75.30;;;;;;4874286;29;20032;-74
2024/03/02 11:39:46;;;;;;;0.15;0.15;;;11.80;74.50;;;;;;4865121;29;20030;-74
2024/03/02 11:42:16;;;;;;;0.15;0.15;;;11.90;74.50;;;;;;4848516;29;20021;-75
2024/03/02 11:44:45;;;;;;;0.10;0.10;;;11.90;74.10;;;;;;4848475;29;20078;-74
2024/03/02 11:47:16;;;;;;;0.10;0.10;;;11.70;73.80;;;;;;4864650;29;20034;-75
2024/03/02 11:49:51;;;;;;;0.10;0.10;;;11.50;73.70;;;;;;4848595;29;20061;-74
2024/03/02 11:52:17;;;;;;;0.10;0.10;;;11.20;73.50;;;;;;4847933;29;20030;-74
2024/03/02 11:54:49;;;;;;;0.10;0.10;;;11.00;74.70;;;;;;4845099;29;20037;-74
2024/03/02 11:57:16;;;;;;;0.10;0.10;;;10.90;75.20;;;;;;4846547;29;20051;-74
2024/03/02 11:59:43;;;;;;;0.10;0.10;;;10.80;75.10;;;;;;4846716;29;20030;-74
2024/03/02 12:02:18;;;;;;;0.10;0.10;;;10.70;75.50;;;;;;4855505;29;20022;-75
2024/03/02 12:04:45;;;;;;;0.10;0.10;;;10.70;75.50;;;;;;4864775;29;20022;-74
2024/03/02 12:07:11;;;;;;;0.10;0.10;;;10.70;75.70;;;;;;4864220;29;20053;-75
2024/03/02 12:09:37;;;;;;;0.10;0.10;;;10.70;75.60;;;;;;4864745;29;20037;-74
2024/03/02 12:12:03;;;;;;;0.10;0.10;;;10.60;74.50;;;;;;4864010;29;20517;-74
2024/03/02 12:14:30;;;;;;;0.10;0.10;;;10.70;74.80;;;;;;4864707;29;20035;-74
2024/03/02 12:16:56;;;;;;;0.10;0.10;;;10.60;75.10;;;;;;4864497;29;20682;-74
2024/03/02 12:19:23;;;;;;;0.10;0.10;;;10.50;75.50;;;;;;4864692;29;20058;-74
2024/03/02 12:21:48;;;;;;;0.10;0.10;;;10.40;75.20;;;;;;4863648;29;20021;-74
2024/03/02 12:24:14;;;;;;;0.10;0.10;;;10.30;75.70;;;;;;4864730;29;20029;-74
2024/03/02 12:26:40;;;;;;;0.10;0.10;;;10.40;76.00;;;;;;4864804;29;20443;-74
2024/03/02 12:29:05;;;;;;;0.10;0.10;;;10.70;75.30;;;;;;4847286;29;20033;-76
2024/03/02 12:31:32;;;;;;;0.10;0.10;;;11.00;75.20;;;;;;4863703;29;20434;-74
2024/03/02 12:33:58;;;;;;;0.10;0.10;;;11.10;74.70;;;;;;4864690;29;20033;-74
2024/03/02 12:36:24;;;;;;;0.10;0.10;;;11.00;74.00;;;;;;4867127;29;20033;-74
2024/03/02 12:38:53;;;;;;;0.10;0.10;;;11.00;72.50;;;;;;4864382;29;20037;-74
2024/03/02 12:41:18;;;;;;;0.20;0.20;;;10.90;72.50;;;;;;4863150;29;20041;-74
2024/03/02 12:43:44;;;;;;;0.13;0.13;;;10.70;72.60;;;;;;4863464;29;20044;-74
2024/03/02 12:46:10;;;;;;;0.10;0.10;;;10.70;73.50;;;;;;4863824;29;20406;-74
2024/03/02 12:48:37;;;;;;;0.20;0.20;;;10.80;73.30;;;;;;4847528;29;20048;-74
2024/03/02 12:51:03;;;;;;;0.10;0.10;;;11.10;73.00;;;;;;4863728;29;20029;-74
2024/03/02 12:53:28;;;;;;;0.10;0.10;;;11.00;71.70;;;;;;4864279;29;20037;-74
2024/03/02 12:55:55;;;;;;;0.10;0.10;;;11.00;71.90;;;;;;4863771;29;20099;-74
2024/03/02 12:58:22;;;;;;;0.10;0.10;;;10.90;73.20;;;;;;4864102;29;20045;-74
2024/03/02 13:00:48;;;;;;;0.10;0.10;;;10.90;73.20;;;;;;4863618;29;20021;-74
2024/03/02 13:03:15;;;;;;;0.10;0.10;;;10.80;72.70;;;;;;4863338;29;20025;-74
2024/03/02 13:05:41;;;;;;;0.20;0.20;;;10.70;72.60;;;;;;4847364;29;20040;-74
2024/03/02 13:08:07;;;;;;;0.17;0.17;;;10.70;72.80;;;;;;4863910;29;20038;-74
2024/03/02 13:10:33;;;;;;;0.10;0.10;;;10.70;72.30;;;;;;4864045;29;20391;-74
2024/03/02 13:13:00;;;;;;;0.10;0.10;;;10.70;73.00;;;;;;4863228;29;20094;-74
2024/03/02 13:15:29;;;;;;;0.10;0.10;;;10.70;72.80;;;;;;4863493;29;20548;-74
2024/03/02 13:18:00;;;;;;;0.10;0.10;;;10.70;73.10;;;;;;4863662;29;20037;-74
2024/03/02 13:20:31;;;;;;;0.10;0.10;;;10.90;73.10;;;;;;4863337;29;20026;-74
2024/03/02 13:22:57;;;;;;;0.10;0.10;;;11.00;72.50;;;;;;4847056;29;20033;-74
2024/03/02 13:25:22;;;;;;;0.10;0.10;;;11.00;72.50;;;;;;4846946;29;20045;-74
2024/03/02 13:27:48;;;;;;;0.10;0.10;;;11.10;72.40;;;;;;4863603;29;20056;-74
2024/03/02 13:30:14;;;;;;;0.10;0.10;;;11.20;73.20;;;;;;4863474;29;20018;-74
2024/03/02 13:32:39;;;;;;;0.10;0.10;;;11.20;73.40;;;;;;4863373;29;20029;-74
2024/03/02 13:35:05;;;;;;;0.10;0.10;;;11.20;73.40;;;;;;4863708;29;20057;-74
2024/03/02 13:37:31;;;;;;;0.10;0.10;;;11.30;72.80;;;;;;4862044;29;20041;-74
2024/03/02 13:39:56;;;;;;;0.10;0.10;;;11.30;72.80;;;;;;4846151;29;20022;-74
2024/03/02 13:42:22;;;;;;;0.10;0.10;;;11.30;72.30;;;;;;4861933;29;20474;-74
2024/03/02 13:44:49;;;;;;;0.10;0.10;;;11.30;72.10;;;;;;4863466;29;20030;-74
2024/03/02 13:47:15;;;;;;;0.10;0.10;;;11.30;71.80;;;;;;4865256;29;20034;-74
2024/03/02 13:49:44;;;;;;;0.10;0.10;;;11.30;72.10;;;;;;4863796;29;20546;-74
2024/03/02 13:52:10;;;;;;;0.10;0.10;;;11.20;72.10;;;;;;4863888;29;20042;-74
2024/03/02 13:54:44;;;;;;;0.10;0.10;;;11.20;71.20;;;;;;4866147;29;20037;-74
2024/03/02 13:57:11;;;;;;;0.10;0.10;;;11.20;71.30;;;;;;4849619;29;20048;-74
2024/03/02 13:59:37;;;;;;;0.10;0.10;;;11.10;69.40;;;;;;4867014;29;20026;-74
2024/03/02 14:02:04;;;;;;;0.10;0.10;;;11.10;68.40;;;;;;4866708;29;20030;-74
2024/03/02 14:04:33;;;;;;;0.10;0.10;;;11.10;67.60;;;;;;4866502;29;20022;-74
2024/03/02 14:07:00;;;;;;;0.10;0.10;;;11.20;68.80;;;;;;4866851;29;20039;-74
2024/03/02 14:09:26;;;;;;;0.10;0.10;;;11.50;67.80;;;;;;4849481;29;20033;-74
2024/03/02 14:11:52;;;;;;;0.10;0.10;;;11.80;66.60;;;;;;4867195;29;20086;-74
2024/03/02 14:14:18;;;;;;;0.10;0.10;;;11.90;65.60;;;;;;4866587;29;20029;-74
2024/03/02 14:16:44;;;;;;;0.10;0.10;;;11.90;64.60;;;;;;4865935;29;20033;-74
2024/03/02 14:19:11;;;;;;;0.10;0.10;;;11.80;65.20;;;;;;4866691;29;20028;-74
2024/03/02 14:21:40;;;;;;;0.10;0.10;;;11.80;65.00;;;;;;4865947;29;20081;-74
2024/03/02 14:24:09;;;;;;;0.10;0.10;;;11.70;65.20;;;;;;4866342;29;20026;-74
2024/03/02 14:26:36;;;;;;;0.10;0.10;;;11.80;65.50;;;;;;4849422;29;20606;-74
2024/03/02 14:29:02;;;;;;;0.10;0.10;;;11.90;64.60;;;;;;4866106;29;20417;-74
2024/03/02 14:31:28;;;;;;;0.10;0.10;;;11.90;64.30;;;;;;4849685;29;20108;-74
2024/03/02 14:33:54;;;;;;;0.10;0.10;;;12.20;64.10;;;;;;4865329;29;20077;-74
2024/03/02 14:36:20;;;;;;;0.10;0.10;;;12.30;63.30;;;;;;4866040;29;20120;-74
2024/03/02 14:38:46;;;;;;;0.10;0.10;;;12.20;62.60;;;;;;4849753;29;20038;-74
2024/03/02 14:41:12;;;;;;;0.10;0.10;;;12.30;62.00;;;;;;4866458;29;20121;-74
2024/03/02 14:43:38;;;;;;;0.10;0.10;;;12.40;62.70;;;;;;4865390;29;20029;-74
2024/03/02 14:46:04;;;;;;;0.10;0.10;;;12.40;62.40;;;;;;4866267;29;20044;-74
2024/03/02 14:48:30;;;;;;;0.10;0.10;;;12.30;62.80;;;;;;4866343;29;20036;-74
2024/03/02 14:50:57;;;;;;;0.10;0.10;;;12.30;62.80;;;;;;4865488;29;20486;-74
2024/03/02 14:53:22;;;;;;;0.10;0.10;;;12.10;63.60;;;;;;4866345;29;20037;-74
2024/03/02 14:55:48;;;;;;;0.10;0.10;;;12.10;63.20;;;;;;4848657;29;20546;-74
2024/03/02 14:58:13;;;;;;;0.10;0.10;;;12.00;63.30;;;;;;4865593;29;20482;-74
2024/03/02 15:00:39;;;;;;;0.10;0.10;;;11.90;63.70;;;;;;4848989;29;20022;-74
2024/03/02 15:03:08;;;;;;;0.10;0.10;;;11.80;64.10;;;;;;4849236;29;20560;-74
2024/03/02 15:05:34;;;;;;;0.10;0.10;;;11.80;64.70;;;;;;4863991;29;20017;-74
2024/03/02 15:08:02;;;;;;;0.10;0.10;;;11.80;64.30;;;;;;4865858;29;20410;-74
2024/03/02 15:10:28;;;;;;;0.10;0.10;;;11.70;64.40;;;;;;4848959;29;20029;-74
2024/03/02 15:12:53;;;;;;;0.10;0.10;;;11.70;64.40;;;;;;4865920;29;20040;-74
2024/03/02 15:15:19;;;;;;;0.10;0.10;;;11.70;64.30;;;;;;4865508;29;20486;-74
2024/03/02 15:17:45;;;;;;;0.10;0.10;;;11.60;64.80;;;;;;4865314;29;20022;-74
2024/03/02 15:20:11;;;;;;;0.10;0.10;;;11.50;63.90;;;;;;4865445;29;20112;-74
2024/03/02 15:22:36;;;;;;;0.10;0.10;;;11.50;64.50;;;;;;4848392;29;20045;-74
2024/03/02 15:25:02;;;;;;;0.10;0.10;;;11.50;63.90;;;;;;4865491;29;20529;-74
2024/03/02 15:27:28;;;;;;;0.10;0.10;;;11.50;63.60;;;;;;4865861;29;20022;-74
2024/03/02 15:29:57;;;;;;;0.10;0.10;;;11.50;63.50;;;;;;4864813;29;20041;-74
2024/03/02 15:32:22;;;;;;;0.10;0.10;;;11.50;63.60;;;;;;4848340;29;20045;-74
2024/03/02 15:34:48;;;;;;;0.10;0.10;;;11.60;63.80;;;;;;4865196;29;20166;-74
2024/03/02 15:37:14;;;;;;;0.10;0.10;;;11.60;63.50;;;;;;4847866;29;20045;-74
2024/03/02 15:39:39;;;;;;;0.10;0.10;;;11.70;63.80;;;;;;4848403;29;20105;-73
2024/03/02 15:42:05;;;;;;;0.10;0.10;;;11.70;63.60;;;;;;4865205;29;20029;-73
2024/03/02 15:44:31;;;;;;;0.10;0.10;;;11.60;63.70;;;;;;4855789;29;20037;-74
2024/03/02 15:46:58;;;;;;;0.10;0.10;;;11.60;63.20;;;;;;4860275;29;20026;-74
2024/03/02 15:49:24;;;;;;;0.10;0.10;;;11.60;62.30;;;;;;4864656;29;20177;-74
2024/03/02 15:51:50;;;;;;;0.10;0.10;;;11.50;63.00;;;;;;4865103;29;20053;-74
2024/03/02 15:54:15;;;;;;;0.10;0.10;;;11.60;63.20;;;;;;4848571;29;20037;-74
2024/03/02 15:56:41;;;;;;;0.10;0.10;;;11.60;62.80;;;;;;4864563;29;20030;-74
2024/03/02 15:59:07;;;;;;;0.10;0.10;;;11.50;62.00;;;;;;4847994;29;20026;-74
2024/03/02 16:01:32;;;;;;;0.10;0.10;;;11.30;61.70;;;;;;4864467;29;20595;-74
2024/03/02 16:03:58;;;;;;;0.10;0.10;;;11.30;62.80;;;;;;4864820;29;20029;-74
2024/03/02 16:06:23;;;;;;;0.10;0.10;;;11.30;62.60;;;;;;4864624;29;20032;-74
2024/03/02 16:08:49;;;;;;;0.10;0.10;;;11.10;63.00;;;;;;4864037;29;20033;-74
2024/03/02 16:11:15;;;;;;;0.10;0.10;;;11.00;62.60;;;;;;4864743;29;20061;-74
2024/03/02 16:13:40;;;;;;;0.10;0.10;;;10.80;62.10;;;;;;4864692;29;20037;-73
2024/03/02 16:16:06;;;;;;;0.10;0.10;;;10.60;62.80;;;;;;4863846;29;20034;-74
2024/03/02 16:18:33;;;;;;;0.10;0.10;;;10.60;63.80;;;;;;4863364;29;20124;-74
2024/03/02 16:20:59;;;;;;;0.10;0.10;;;10.50;64.40;;;;;;4863611;29;20113;-74
2024/03/02 16:23:25;;;;;;;0.10;0.10;;;10.30;63.40;;;;;;4864753;29;20023;-74
2024/03/02 16:25:50;;;;;;;0.10;0.10;;;10.30;64.80;;;;;;4847214;29;20581;-74
2024/03/02 16:28:16;;;;;;;0.10;0.10;;;10.30;65.00;;;;;;4847963;29;20044;-74
2024/03/02 16:30:42;;;;;;;0.10;0.10;;;10.30;64.90;;;;;;4864201;29;20091;-74
2024/03/02 16:33:08;;;;;;;0.10;0.10;;;10.20;65.40;;;;;;4847946;29;20123;-74
2024/03/02 16:35:33;;;;;;;0.10;0.10;;;10.20;65.50;;;;;;4863376;29;20136;-74
2024/03/02 16:37:59;;;;;;;0.10;0.10;;;10.20;66.00;;;;;;4832730;29;20077;-74
2024/03/02 16:40:24;;;;;;;0.10;0.10;;;10.20;65.80;;;;;;4863708;29;20450;-74
2024/03/02 16:42:50;;;;;;;0.10;0.10;;;10.30;65.70;;;;;;4863490;29;20058;-74
2024/03/02 16:45:16;;;;;;;0.10;0.10;;;10.20;65.90;;;;;;4863872;29;20038;-74
2024/03/02 16:47:41;;;;;;;0.10;0.10;;;10.20;65.80;;;;;;4864499;29;20030;-74
2024/03/02 16:50:11;;;;;;;0.10;0.10;;;10.30;66.00;;;;;;4863826;29;20037;-74
2024/03/02 16:52:36;;;;;;;0.10;0.10;;;10.20;65.80;;;;;;4847581;29;20037;-74
2024/03/02 16:55:03;;;;;;;0.10;0.10;;;10.10;65.80;;;;;;4863391;29;20094;-74
2024/03/02 16:57:28;;;;;;;0.10;0.10;;;10.00;66.00;;;;;;4863775;29;20379;-74
2024/03/02 16:59:54;;;;;;;0.10;0.10;;;10.00;67.10;;;;;;4863888;29;20065;-74
2024/03/02 17:02:19;;;;;;;0.10;0.10;;;10.00;66.70;;;;;;4846410;29;20045;-74
2024/03/02 17:04:45;;;;;;;0.10;0.10;;;9.90;66.70;;;;;;4863256;29;20026;-74
2024/03/02 17:07:11;;;;;;;0.10;0.10;;;9.90;67.00;;;;;;4847377;29;20025;-75
2024/03/02 17:09:36;;;;;;;0.10;0.10;;;9.90;66.80;;;;;;4861883;29;20033;-74
2024/03/02 17:12:02;;;;;;;0.10;0.10;;;9.90;66.80;;;;;;4864176;29;20058;-75
2024/03/02 17:14:28;;;;;;;0.10;0.10;;;9.90;66.10;;;;;;4847072;29;20055;-74
2024/03/02 17:16:53;;;;;;;0.10;0.10;;;9.90;66.50;;;;;;4863846;29;20026;-74
2024/03/02 17:19:19;;;;;;;0.10;0.10;;;9.80;66.50;;;;;;4863557;29;20641;-74
2024/03/02 17:21:45;;;;;;;0.10;0.10;;;9.70;66.40;;;;;;4863739;29;20100;-74
2024/03/02 17:24:11;;;;;;;0.10;0.10;;;9.70;66.60;;;;;;4863715;29;20025;-74
2024/03/02 17:26:39;;;;;;;0.10;0.10;;;9.70;67.20;;;;;;4863906;29;20549;-74
2024/03/02 17:29:05;;;;;;;0.10;0.10;;;9.50;67.00;;;;;;4865181;29;20034;-74
2024/03/02 17:31:31;;;;;;;0.10;0.10;;;9.50;67.20;;;;;;4867385;29;20078;-74
2024/03/02 17:33:56;;;;;;;0.10;0.10;;;9.40;67.30;;;;;;4867004;29;20065;-74
2024/03/02 17:36:22;;;;;;;0.10;0.10;;;9.30;67.90;;;;;;4867061;29;20040;-74
2024/03/02 17:38:47;;;;;;;0.10;0.10;;;9.30;68.50;;;;;;4866732;29;20036;-74
2024/03/02 17:41:13;;;;;;;0.10;0.10;;;9.20;68.80;;;;;;4852279;29;20092;-74
2024/03/02 17:43:39;;;;;;;0.10;0.10;;;9.10;69.90;;;;;;4866550;29;20029;-75
2024/03/02 17:46:05;;;;;;;0.10;0.10;;;9.00;70.20;;;;;;4866729;29;20463;-74
2024/03/02 17:48:31;;;;;;;0.10;0.10;;;8.80;70.80;;;;;;4867479;29;20041;-74
2024/03/02 17:50:57;;;;;;;0.10;0.10;;;8.70;71.20;;;;;;4866928;29;20037;-74
2024/03/02 17:53:22;;;;;;;0.10;0.10;;;8.60;71.50;;;;;;4866958;29;20100;-74
2024/03/02 17:55:48;;;;;;;0.10;0.10;;;8.60;72.00;;;;;;4867237;29;20116;-74
2024/03/02 17:58:13;;;;;;;0.10;0.10;;;8.60;72.00;;;;;;4866889;29;20104;-74
2024/03/02 18:00:40;;;;;;;0.10;0.10;;;8.50;72.50;;;;;;4866468;29;20036;-74
2024/03/02 18:03:06;;;;;;;0.10;0.10;;;8.40;72.30;;;;;;4849535;29;20049;-74
2024/03/02 18:05:32;;;;;;;0.10;0.10;;;8.40;72.20;;;;;;4866662;29;20026;-74
2024/03/02 18:07:58;;;;;;;0.10;0.10;;;8.40;71.70;;;;;;4866854;29;20040;-74
2024/03/02 18:10:23;;;;;;;0.10;0.10;;;8.30;72.20;;;;;;4866271;29;20040;-74
2024/03/02 18:12:49;;;;;;;0.10;0.10;;;8.30;72.20;;;;;;4866131;29;20041;-74
2024/03/02 18:15:15;;;;;;;0.10;0.10;;;8.20;72.60;;;;;;4878808;29;20022;-74
2024/03/02 18:17:40;;;;;;;0.10;0.10;;;8.20;73.40;;;;;;4865330;29;20029;-74
2024/03/02 18:20:06;;;;;;;0.10;0.10;;;8.10;73.30;;;;;;4866021;29;20034;-74